createdAt,value
2018-12-14T00:01:26.908Z,99.90
2018-12-14T00:03:55.094Z,99.90
2018-12-14T00:06:23.244Z,99.90
2018-12-14T00:08:51.419Z,99.90
2018-12-14T00:11:19.568Z,99.90
2018-12-14T00:13:47.755Z,99.90
2018-12-14T00:16:15.912Z,99.90
2018-12-14T00:18:44.083Z,99.90
2018-12-14T00:21:12.227Z,99.90
2018-12-14T00:23:40.480Z,99.90
2018-12-14T00:26:08.911Z,99.90
2018-12-14T00:28:37.086Z,99.90
2018-12-14T00:31:05.240Z,99.90
2018-12-14T00:33:33.570Z,99.90
2018-12-14T00:36:02.027Z,99.90
2018-12-14T00:38:30.204Z,99.90
2018-12-14T00:40:58.355Z,99.90
2018-12-14T00:43:26.527Z,99.90
2018-12-14T00:45:54.688Z,99.90
2018-12-14T00:48:22.855Z,99.90
2018-12-14T00:50:51.176Z,99.90
2018-12-14T00:53:19.604Z,99.90
2018-12-14T00:55:47.779Z,99.90
2018-12-14T00:58:15.929Z,99.90
2018-12-14T01:00:44.098Z,99.90
2018-12-14T01:03:12.392Z,99.90
2018-12-14T01:05:40.569Z,99.90
2018-12-14T01:08:08.723Z,99.90
2018-12-14T01:10:36.901Z,99.90
2018-12-14T01:13:05.139Z,99.90
2018-12-14T01:15:33.383Z,99.90
2018-12-14T01:18:01.540Z,99.90
2018-12-14T01:20:29.715Z,99.90
2018-12-14T01:22:57.870Z,99.90
2018-12-14T01:25:26.051Z,99.90
2018-12-14T01:27:54.209Z,99.90
2018-12-14T01:30:22.412Z,99.90
2018-12-14T01:32:52.327Z,99.90
2018-12-14T01:35:20.500Z,99.90
2018-12-14T01:37:48.655Z,99.90
2018-12-14T01:40:16.840Z,99.90
2018-12-14T01:42:45.019Z,99.90
2018-12-14T01:45:13.191Z,99.90
2018-12-14T01:47:41.343Z,99.90
2018-12-14T01:50:09.590Z,99.90
2018-12-14T01:52:38.016Z,99.90
2018-12-14T01:55:06.260Z,99.90
2018-12-14T01:57:34.489Z,99.90
2018-12-14T02:00:02.808Z,99.90
2018-12-14T02:02:31.035Z,99.90
2018-12-14T02:04:59.211Z,99.90
2018-12-14T02:07:27.364Z,99.90
2018-12-14T02:09:56.002Z,99.90
2018-12-14T02:12:24.425Z,99.90
2018-12-14T02:14:52.632Z,99.90
2018-12-14T02:17:20.795Z,99.90
2018-12-14T02:19:49.045Z,99.90
2018-12-14T02:22:17.460Z,99.90
2018-12-14T02:24:45.635Z,99.90
2018-12-14T02:27:13.791Z,99.90
2018-12-14T02:29:41.973Z,99.90
2018-12-14T02:32:10.202Z,99.90
2018-12-14T02:34:38.381Z,99.90
2018-12-14T02:37:06.538Z,99.90
2018-12-14T02:39:34.757Z,99.90
2018-12-14T02:42:03.050Z,99.90
2018-12-14T02:44:31.229Z,99.90
2018-12-14T02:46:59.376Z,99.90
2018-12-14T02:49:27.925Z,99.90
2018-12-14T02:51:57.062Z,99.90
2018-12-14T02:54:25.460Z,99.90
2018-12-14T02:56:54.256Z,99.90
2018-12-14T02:59:22.457Z,99.90
2018-12-14T03:01:50.608Z,99.90
2018-12-14T03:04:18.834Z,99.90
2018-12-14T03:06:47.068Z,99.90
2018-12-14T03:09:15.256Z,99.90
2018-12-14T03:11:43.568Z,99.90
2018-12-14T03:14:11.767Z,99.90
2018-12-14T03:16:39.920Z,99.90
2018-12-14T03:19:08.167Z,99.90
2018-12-14T03:21:36.414Z,99.90
2018-12-14T03:24:04.575Z,99.90
2018-12-14T03:26:32.747Z,99.90
2018-12-14T03:29:00.905Z,99.90
2018-12-14T03:31:29.216Z,99.90
2018-12-14T03:33:57.380Z,99.90
2018-12-14T03:36:25.556Z,99.90
2018-12-14T03:38:53.707Z,99.90
2018-12-14T03:41:21.889Z,99.90
2018-12-14T03:43:50.040Z,99.90
2018-12-14T03:46:18.279Z,99.90
2018-12-14T03:48:46.435Z,99.90
2018-12-14T03:51:14.779Z,99.90
2018-12-14T03:53:42.927Z,99.90
2018-12-14T03:56:11.096Z,99.90
2018-12-14T03:58:39.263Z,99.90
2018-12-14T04:01:07.511Z,99.90
2018-12-14T04:03:35.928Z,99.90
2018-12-14T04:06:04.777Z,99.90
2018-12-14T04:08:32.951Z,99.90
2018-12-14T04:11:01.205Z,99.90
2018-12-14T04:13:29.360Z,99.90
2018-12-14T04:15:57.534Z,99.90
2018-12-14T04:18:25.685Z,99.90
2018-12-14T04:20:53.934Z,99.90
2018-12-14T04:23:22.087Z,99.90
2018-12-14T04:25:50.437Z,99.90
2018-12-14T04:28:18.664Z,99.90
2018-12-14T04:30:46.939Z,99.90
2018-12-14T04:33:15.964Z,99.90
2018-12-14T04:35:44.141Z,99.90
2018-12-14T04:38:12.303Z,99.90
2018-12-14T04:40:40.482Z,99.90
2018-12-14T04:43:08.633Z,99.90
2018-12-14T04:45:36.799Z,99.90
2018-12-14T04:48:04.960Z,99.90
2018-12-14T04:50:33.127Z,99.90
2018-12-14T04:53:01.282Z,99.90
2018-12-14T04:55:29.455Z,99.90
2018-12-14T04:57:57.622Z,99.90
2018-12-14T05:00:25.945Z,99.90
2018-12-14T05:02:54.100Z,99.90
2018-12-14T05:05:22.275Z,99.90
2018-12-14T05:07:50.427Z,99.90
2018-12-14T05:10:18.602Z,99.90
2018-12-14T05:12:46.760Z,99.90
2018-12-14T05:15:14.924Z,99.90
2018-12-14T05:17:43.085Z,99.90
2018-12-14T05:20:11.367Z,99.90
2018-12-14T05:22:39.529Z,99.90
2018-12-14T05:25:07.776Z,99.90
2018-12-14T05:27:35.924Z,99.90
2018-12-14T05:30:06.160Z,99.90
2018-12-14T05:32:34.322Z,99.90
2018-12-14T05:35:02.544Z,99.90
2018-12-14T05:37:30.714Z,99.90
2018-12-14T05:39:58.868Z,99.90
2018-12-14T05:42:27.039Z,99.90
2018-12-14T05:44:55.195Z,99.90
2018-12-14T05:47:23.372Z,99.90
2018-12-14T05:49:51.523Z,99.90
2018-12-14T05:52:19.695Z,99.90
2018-12-14T05:54:47.851Z,99.90
2018-12-14T05:57:16.103Z,99.90
2018-12-14T05:59:45.065Z,99.90
2018-12-14T06:02:13.236Z,99.90
2018-12-14T06:04:41.396Z,99.90
2018-12-14T06:07:09.578Z,99.90
2018-12-14T06:09:37.864Z,99.90
2018-12-14T06:12:06.313Z,99.90
2018-12-14T06:14:34.475Z,99.90
2018-12-14T06:17:02.655Z,99.90
2018-12-14T06:19:30.811Z,99.90
2018-12-14T06:21:58.988Z,99.90
2018-12-14T06:24:27.143Z,99.90
2018-12-14T06:26:55.316Z,99.90
2018-12-14T06:29:25.313Z,99.90
2018-12-14T06:31:53.490Z,99.90
2018-12-14T06:34:21.743Z,99.90
2018-12-14T06:36:50.076Z,99.90
2018-12-14T06:39:18.575Z,99.90
2018-12-14T06:41:47.023Z,99.90
2018-12-14T06:44:15.204Z,99.90
2018-12-14T06:46:43.384Z,99.90
2018-12-14T06:49:11.540Z,99.90
2018-12-14T06:51:39.718Z,99.90
2018-12-14T06:54:07.868Z,99.90
2018-12-14T06:56:36.047Z,99.90
2018-12-14T06:59:04.324Z,99.90
2018-12-14T07:01:32.581Z,99.90
2018-12-14T07:04:00.741Z,99.90
2018-12-14T07:06:28.920Z,99.90
2018-12-14T07:08:57.121Z,99.90
2018-12-14T07:11:25.287Z,99.90
2018-12-14T07:13:53.445Z,99.90
2018-12-14T07:16:21.625Z,99.90
2018-12-14T07:18:49.928Z,99.90
2018-12-14T07:21:18.094Z,99.90
2018-12-14T07:23:46.252Z,99.90
2018-12-14T07:26:14.499Z,99.90
2018-12-14T07:28:42.656Z,99.90
2018-12-14T07:31:10.835Z,99.90
2018-12-14T07:33:38.988Z,99.90
2018-12-14T07:36:07.175Z,99.90
2018-12-14T07:38:35.407Z,99.90
2018-12-14T07:41:03.560Z,99.90
2018-12-14T07:43:31.734Z,99.90
2018-12-14T07:45:59.891Z,99.90
2018-12-14T07:48:28.137Z,99.90
2018-12-14T07:50:56.283Z,99.90
2018-12-14T07:53:24.458Z,99.90
2018-12-14T07:55:52.627Z,99.90
2018-12-14T07:58:20.803Z,99.90
2018-12-14T08:00:48.961Z,99.90
2018-12-14T08:03:17.144Z,99.90
2018-12-14T08:05:45.295Z,99.90
2018-12-14T08:08:13.473Z,99.90
2018-12-14T08:10:41.629Z,99.90
2018-12-14T08:13:10.078Z,99.90
2018-12-14T08:15:38.400Z,99.90
2018-12-14T08:18:06.564Z,99.90
2018-12-14T08:20:34.719Z,99.90
2018-12-14T08:23:02.897Z,99.90
2018-12-14T08:25:31.066Z,99.90
2018-12-14T08:27:59.249Z,99.90
2018-12-14T08:30:27.595Z,99.90
2018-12-14T08:32:55.759Z,99.90
2018-12-14T08:35:23.923Z,99.90
2018-12-14T08:37:52.443Z,99.90
2018-12-14T08:40:20.676Z,99.90
2018-12-14T08:42:48.856Z,99.90
2018-12-14T08:45:17.908Z,99.90
2018-12-14T08:47:46.223Z,99.90
2018-12-14T08:50:14.385Z,99.90
2018-12-14T08:52:42.555Z,99.90
2018-12-14T08:55:10.711Z,99.90
2018-12-14T08:57:38.887Z,99.90
2018-12-14T09:00:07.564Z,99.90
2018-12-14T09:02:35.740Z,99.90
2018-12-14T09:05:04.843Z,99.90
2018-12-14T09:07:33.027Z,99.90
2018-12-14T09:10:01.175Z,99.90
2018-12-14T09:12:29.350Z,99.90
2018-12-14T09:14:57.498Z,99.90
2018-12-14T09:17:25.747Z,99.90
2018-12-14T09:19:54.167Z,99.90
2018-12-14T09:22:22.335Z,99.90
2018-12-14T09:24:50.479Z,99.90
2018-12-14T09:27:18.788Z,99.90
2018-12-14T09:29:46.927Z,99.90
2018-12-14T09:32:15.130Z,99.90
2018-12-14T09:34:43.277Z,99.90
2018-12-14T09:37:11.443Z,99.90
2018-12-14T09:39:39.585Z,99.90
2018-12-14T09:42:07.756Z,99.90
2018-12-14T09:44:35.920Z,99.90
2018-12-14T09:47:04.170Z,99.90
2018-12-14T09:49:32.324Z,99.90
2018-12-14T09:52:00.599Z,99.90
2018-12-14T09:54:28.777Z,99.90
2018-12-14T09:56:56.947Z,99.90
2018-12-14T09:59:25.120Z,99.90
2018-12-14T10:01:53.272Z,99.90
2018-12-14T10:04:21.438Z,99.90
2018-12-14T10:06:49.581Z,99.90
2018-12-14T10:09:17.758Z,99.90
2018-12-14T10:11:45.904Z,99.90
2018-12-14T10:14:14.067Z,99.90
2018-12-14T10:16:42.334Z,99.90
2018-12-14T10:19:10.512Z,99.90
2018-12-14T10:21:38.659Z,99.90
2018-12-14T10:24:06.827Z,99.90
2018-12-14T10:26:35.042Z,99.90
2018-12-14T10:29:03.206Z,99.90
2018-12-14T10:31:31.354Z,99.90
2018-12-14T10:33:59.524Z,99.90
2018-12-14T10:36:27.668Z,99.90
2018-12-14T10:38:55.843Z,99.90
2018-12-14T10:41:23.984Z,99.90
2018-12-14T10:43:52.152Z,99.90
2018-12-14T10:46:20.416Z,99.90
2018-12-14T10:48:48.595Z,99.90
2018-12-14T10:51:17.355Z,99.90
2018-12-14T10:53:45.526Z,99.90
2018-12-14T10:56:13.743Z,99.90
2018-12-14T10:58:41.920Z,99.90
2018-12-14T11:01:15.693Z,99.90
2018-12-14T11:03:43.859Z,99.90
2018-12-14T11:06:12.014Z,99.90
2018-12-14T11:08:40.188Z,99.90
2018-12-14T11:11:08.335Z,99.80
2018-12-14T11:13:36.495Z,98.80
2018-12-14T11:16:04.648Z,98.70
2018-12-14T11:18:32.823Z,98.40
2018-12-14T11:21:00.970Z,97.80
2018-12-14T11:23:29.156Z,97.30
2018-12-14T11:25:57.351Z,98.00
2018-12-14T11:28:25.516Z,99.40
2018-12-14T11:30:53.672Z,99.20
2018-12-14T11:33:21.834Z,99.90
2018-12-14T11:35:50.132Z,99.80
2018-12-14T11:38:18.308Z,99.90
2018-12-14T11:40:46.465Z,99.90
2018-12-14T11:43:15.224Z,99.90
2018-12-14T11:45:43.377Z,99.90
2018-12-14T11:48:11.548Z,99.90
2018-12-14T11:50:39.700Z,99.90
2018-12-14T11:53:07.867Z,99.90
2018-12-14T11:55:36.012Z,99.50
2018-12-14T11:58:04.184Z,99.90
2018-12-14T12:00:32.405Z,99.80
2018-12-14T12:03:00.572Z,99.90
2018-12-14T12:05:28.730Z,99.90
2018-12-14T12:07:57.414Z,99.90
2018-12-14T12:10:25.704Z,99.90
2018-12-14T12:12:53.923Z,99.90
2018-12-14T12:15:22.079Z,99.90
2018-12-14T12:17:50.256Z,99.90
2018-12-14T12:20:17.911Z,99.90
2018-12-14T12:22:45.535Z,99.90
2018-12-14T12:25:13.699Z,99.90
2018-12-14T12:27:41.859Z,99.90
2018-12-14T12:30:10.485Z,99.90
2018-12-14T12:32:38.629Z,99.90
2018-12-14T12:35:08.115Z,99.90
2018-12-14T12:37:36.434Z,99.90
2018-12-14T12:40:05.447Z,99.90
2018-12-14T12:42:33.598Z,99.90
2018-12-14T12:45:02.023Z,99.90
2018-12-14T12:47:30.168Z,99.90
2018-12-14T12:49:59.295Z,99.90
2018-12-14T12:52:27.438Z,99.90
2018-12-14T12:54:55.614Z,99.90
2018-12-14T12:57:23.760Z,99.90
2018-12-14T12:59:51.923Z,99.90
2018-12-14T13:02:20.081Z,99.90
2018-12-14T13:04:48.610Z,99.90
2018-12-14T13:07:16.751Z,99.90
2018-12-14T13:09:44.920Z,99.90
2018-12-14T13:12:13.067Z,99.90
2018-12-14T13:14:41.335Z,99.90
2018-12-14T13:17:09.680Z,99.90
2018-12-14T13:19:37.841Z,99.90
2018-12-14T13:22:05.983Z,99.90
2018-12-14T13:24:34.159Z,99.90
2018-12-14T13:27:02.310Z,99.90
2018-12-14T13:29:30.481Z,99.90
2018-12-14T13:31:58.624Z,99.90
2018-12-14T13:34:27.016Z,99.90
2018-12-14T13:36:55.183Z,99.90
2018-12-14T13:39:23.354Z,99.90
2018-12-14T13:41:51.499Z,99.90
2018-12-14T13:44:19.747Z,99.90
2018-12-14T13:46:47.903Z,99.90
2018-12-14T13:49:16.071Z,99.90
2018-12-14T13:51:44.208Z,99.90
2018-12-14T13:54:12.376Z,99.90
2018-12-14T13:56:40.596Z,99.20
2018-12-14T13:59:08.776Z,97.80
2018-12-14T14:01:36.923Z,98.60
2018-12-14T14:04:05.093Z,99.50
2018-12-14T14:06:33.311Z,99.80
2018-12-14T14:09:01.484Z,99.90
2018-12-14T14:11:29.645Z,99.90
2018-12-14T14:13:57.931Z,99.90
2018-12-14T14:16:26.084Z,99.90
2018-12-14T14:18:55.004Z,99.90
2018-12-14T14:21:23.152Z,99.90
2018-12-14T14:23:51.447Z,99.90
2018-12-14T14:26:19.615Z,99.60
2018-12-14T14:28:47.791Z,99.90
2018-12-14T14:31:15.968Z,99.90
2018-12-14T14:33:44.657Z,99.90
2018-12-14T14:36:12.999Z,99.90
2018-12-14T14:38:41.149Z,99.90
2018-12-14T14:41:09.327Z,99.90
2018-12-14T14:43:37.809Z,99.90
2018-12-14T14:46:05.971Z,99.90
2018-12-14T14:48:34.189Z,99.90
2018-12-14T14:51:02.402Z,99.90
2018-12-14T14:53:30.627Z,99.90
2018-12-14T14:55:58.800Z,99.90
2018-12-14T14:58:26.948Z,99.90
2018-12-14T15:00:55.156Z,99.90
2018-12-14T15:03:23.491Z,99.90
2018-12-14T15:05:51.680Z,99.90
2018-12-14T15:08:19.829Z,99.90
2018-12-14T15:10:48.076Z,99.90
2018-12-14T15:13:16.308Z,99.90
2018-12-14T15:15:44.473Z,99.90
2018-12-14T15:18:12.622Z,99.90
2018-12-14T15:20:40.795Z,99.90
2018-12-14T15:23:08.939Z,99.90
2018-12-14T15:25:37.115Z,99.90
2018-12-14T15:28:05.260Z,99.90
2018-12-14T15:30:33.429Z,99.90
2018-12-14T15:33:01.597Z,99.90
2018-12-14T15:35:29.764Z,99.90
2018-12-14T15:37:57.917Z,99.90
2018-12-14T15:40:26.093Z,99.90
2018-12-14T15:42:54.235Z,99.90
2018-12-14T15:45:22.410Z,99.90
2018-12-14T15:47:50.552Z,99.90
2018-12-14T15:50:18.790Z,99.90
2018-12-14T15:52:47.019Z,99.90
2018-12-14T15:55:15.264Z,99.90
2018-12-14T15:57:43.416Z,99.90
2018-12-14T16:00:11.583Z,99.90
2018-12-14T16:02:39.811Z,99.90
2018-12-14T16:05:08.339Z,99.90
2018-12-14T16:07:36.550Z,99.90
2018-12-14T16:10:06.963Z,99.90
2018-12-14T16:12:35.273Z,99.90
2018-12-14T16:15:05.093Z,99.90
2018-12-14T16:17:33.259Z,99.90
2018-12-14T16:20:01.433Z,99.90
2018-12-14T16:22:29.580Z,99.90
2018-12-14T16:24:57.760Z,99.90
2018-12-14T16:27:25.931Z,99.90
2018-12-14T16:29:54.099Z,99.90
2018-12-14T16:32:22.255Z,99.90
2018-12-14T16:34:50.422Z,99.90
2018-12-14T16:37:18.596Z,99.90
2018-12-14T16:39:46.756Z,99.90
2018-12-14T16:42:15.016Z,99.90
2018-12-14T16:44:43.179Z,99.90
2018-12-14T16:47:12.024Z,99.90
2018-12-14T16:49:40.191Z,99.90
2018-12-14T16:52:10.491Z,99.90
2018-12-14T16:54:38.639Z,99.90
2018-12-14T16:57:06.812Z,99.90
2018-12-14T16:59:34.963Z,99.90
2018-12-14T17:02:03.259Z,99.90
2018-12-14T17:04:31.404Z,99.90
2018-12-14T17:06:59.575Z,99.90
2018-12-14T17:09:27.726Z,99.90
2018-12-14T17:11:55.895Z,99.90
2018-12-14T17:14:24.052Z,99.90
2018-12-14T17:16:52.219Z,99.90
2018-12-14T17:19:20.378Z,99.90
2018-12-14T17:21:48.687Z,99.90
2018-12-14T17:24:16.845Z,99.90
2018-12-14T17:26:45.076Z,99.90
2018-12-14T17:29:13.230Z,99.90
2018-12-14T17:31:41.476Z,99.90
2018-12-14T17:34:09.619Z,99.90
2018-12-14T17:36:38.228Z,99.90
2018-12-14T17:39:06.751Z,99.90
2018-12-14T17:41:35.077Z,99.90
2018-12-14T17:44:03.233Z,99.90
2018-12-14T17:46:31.404Z,99.90
2018-12-14T17:48:59.548Z,99.90
2018-12-14T17:51:27.720Z,99.90
2018-12-14T17:53:55.880Z,99.90
2018-12-14T17:56:24.063Z,99.90
2018-12-14T17:58:52.203Z,99.90
2018-12-14T18:01:20.492Z,99.90
2018-12-14T18:03:48.635Z,99.90
2018-12-14T18:06:16.814Z,99.90
2018-12-14T18:08:44.962Z,99.90
2018-12-14T18:11:13.287Z,99.90
2018-12-14T18:13:41.440Z,99.90
2018-12-14T18:16:09.989Z,99.90
2018-12-14T18:18:38.141Z,99.90
2018-12-14T18:21:06.440Z,99.90
2018-12-14T18:23:34.587Z,99.90
2018-12-14T18:26:02.759Z,99.90
2018-12-14T18:28:30.903Z,99.90
2018-12-14T18:30:59.075Z,99.90
2018-12-14T18:33:27.218Z,99.90
2018-12-14T18:35:58.101Z,99.90
2018-12-14T18:38:26.546Z,99.90
2018-12-14T18:40:54.743Z,99.90
2018-12-14T18:43:22.895Z,99.90
2018-12-14T18:45:53.300Z,99.90
2018-12-14T18:48:21.222Z,99.90
2018-12-14T18:50:49.591Z,99.90
2018-12-14T18:53:17.753Z,99.90
2018-12-14T18:55:45.927Z,99.90
2018-12-14T18:58:14.075Z,99.90
2018-12-14T19:00:42.509Z,99.90
2018-12-14T19:03:10.665Z,99.90
2018-12-14T19:05:38.901Z,99.90
2018-12-14T19:08:07.050Z,99.90
2018-12-14T19:10:35.224Z,99.90
2018-12-14T19:13:03.390Z,99.90
2018-12-14T19:15:31.541Z,99.90
2018-12-14T19:17:59.717Z,99.90
2018-12-14T19:20:27.855Z,99.90
2018-12-14T19:22:56.033Z,99.90
2018-12-14T19:25:24.181Z,99.90
2018-12-14T19:27:52.348Z,99.90
2018-12-14T19:30:20.548Z,99.90
2018-12-14T19:32:48.724Z,99.90
2018-12-14T19:35:16.873Z,99.90
2018-12-14T19:37:45.041Z,99.90
2018-12-14T19:40:13.255Z,99.90
2018-12-14T19:42:41.428Z,99.90
2018-12-14T19:45:09.655Z,99.90
2018-12-14T19:47:37.907Z,99.90
2018-12-14T19:50:08.444Z,99.90
2018-12-14T19:52:36.614Z,99.90
2018-12-14T19:55:07.311Z,99.90
2018-12-14T19:57:35.553Z,99.90
2018-12-14T20:00:07.147Z,99.90
2018-12-14T20:02:35.417Z,99.90
2018-12-14T20:05:03.996Z,99.90
2018-12-14T20:07:32.166Z,99.90
2018-12-14T20:10:00.307Z,99.90
2018-12-14T20:12:28.479Z,99.90
2018-12-14T20:14:56.642Z,99.90
2018-12-14T20:17:24.804Z,99.90
2018-12-14T20:19:53.067Z,99.90
2018-12-14T20:22:21.235Z,99.90
2018-12-14T20:24:49.459Z,99.90
2018-12-14T20:27:17.631Z,99.90
2018-12-14T20:29:45.864Z,99.90
2018-12-14T20:32:14.051Z,99.90
2018-12-14T20:34:42.199Z,99.90
2018-12-14T20:37:10.385Z,99.90
2018-12-14T20:39:38.659Z,99.90
2018-12-14T20:42:06.908Z,99.90
2018-12-14T20:44:35.056Z,99.90
2018-12-14T20:47:03.231Z,99.90
2018-12-14T20:49:31.396Z,99.90
2018-12-14T20:51:59.564Z,99.90
2018-12-14T20:54:27.711Z,99.90
2018-12-14T20:56:55.879Z,99.90
2018-12-14T20:59:24.025Z,99.90
2018-12-14T21:01:52.201Z,99.90
2018-12-14T21:04:20.347Z,99.90
2018-12-14T21:06:48.516Z,99.90
2018-12-14T21:09:16.743Z,99.90
2018-12-14T21:11:44.912Z,99.90
2018-12-14T21:14:13.233Z,99.90
2018-12-14T21:16:41.408Z,99.90
2018-12-14T21:19:09.747Z,99.90
2018-12-14T21:21:38.009Z,99.90
2018-12-14T21:24:06.167Z,99.90
2018-12-14T21:26:34.315Z,99.90
2018-12-14T21:29:02.481Z,99.90
2018-12-14T21:31:30.647Z,99.90
2018-12-14T21:33:58.815Z,99.90
2018-12-14T21:36:26.963Z,99.90
2018-12-14T21:38:55.207Z,99.90
2018-12-14T21:41:23.347Z,99.90
2018-12-14T21:43:51.531Z,99.90
2018-12-14T21:46:19.682Z,99.90
2018-12-14T21:48:47.851Z,99.90
2018-12-14T21:51:16.039Z,99.90
2018-12-14T21:53:44.203Z,99.90
2018-12-14T21:56:12.349Z,99.90
2018-12-14T21:58:40.525Z,99.90
2018-12-14T22:01:08.676Z,99.90
2018-12-14T22:03:36.847Z,99.90
2018-12-14T22:06:05.063Z,99.90
2018-12-14T22:08:33.241Z,99.90
2018-12-14T22:11:01.383Z,99.90
2018-12-14T22:13:29.556Z,99.90
2018-12-14T22:15:57.698Z,99.90
2018-12-14T22:18:25.875Z,99.90
2018-12-14T22:20:54.020Z,99.90
2018-12-14T22:23:22.372Z,99.90
2018-12-14T22:25:50.527Z,99.90
2018-12-14T22:28:18.852Z,99.90
2018-12-14T22:30:47.016Z,99.90
2018-12-14T22:33:15.189Z,99.90
2018-12-14T22:35:43.329Z,99.90
2018-12-14T22:38:11.553Z,99.90
2018-12-14T22:40:39.712Z,99.90
2018-12-14T22:43:07.890Z,99.90
2018-12-14T22:45:36.035Z,99.90
2018-12-14T22:48:04.344Z,99.90
2018-12-14T22:50:32.487Z,99.90
2018-12-14T22:53:00.661Z,99.90
2018-12-14T22:55:28.806Z,99.90
2018-12-14T22:57:56.984Z,99.90
2018-12-14T23:00:25.480Z,99.90
2018-12-14T23:02:53.627Z,99.90
2018-12-14T23:05:21.798Z,99.90
2018-12-14T23:07:49.943Z,99.90
2018-12-14T23:10:18.107Z,99.90
2018-12-14T23:12:46.251Z,99.90
2018-12-14T23:15:14.420Z,99.90
2018-12-14T23:17:43.730Z,99.90
2018-12-14T23:20:11.900Z,99.90
2018-12-14T23:22:40.047Z,99.90
2018-12-14T23:25:08.292Z,99.90
2018-12-14T23:27:36.509Z,99.90
2018-12-14T23:30:07.724Z,99.90
2018-12-14T23:32:35.951Z,99.90
2018-12-14T23:35:04.772Z,99.90
2018-12-14T23:37:33.018Z,99.90
2018-12-14T23:40:01.192Z,99.90
2018-12-14T23:42:29.346Z,99.90
2018-12-14T23:44:57.511Z,99.90
2018-12-14T23:47:25.663Z,99.90
2018-12-14T23:49:53.827Z,99.90
2018-12-14T23:52:21.978Z,99.90
2018-12-14T23:54:50.144Z,99.90
2018-12-14T23:57:18.767Z,99.90
2018-12-14T23:59:46.932Z,99.90
